Stonewall Jackson Training S, North Carolina
Current Conditions -  °F | °C
As of 2:50 PM on Friday 31 Oct 2014 (Local Time) from KJQF Reporting Station
Scattered Clouds Scattered Clouds  
Wind Chill: 61°   Ceiling: Unl
Heat Index: 61°   Visibility: 10mi
Dew Point: 43°   Wind: 0mph
Humidity: 52%   Direction: NA
Pressure: 29.87"   Gusts: NA
Location:  35.3735°N, 80.5212°W
Report Text: KJQF 311850Z 00000KT 10SM SCT037 16/06 A2987
Loading
Personal Weather Stations






























Interactive Weather Map
Tropical Storm Tracking
New forecast layout! Learn more

10-Day Weather Forecast

Advertisements
Track Severe Weather on mobile